Time;durP1;ratioP1;P1;durP2;ratioP2;P2;SDS_P1;SDS_P2;PMS_P1;PMS_P2;Temp;Humidity;BMP_temperature;BMP_pressure;BME280_temperature;BME280_humidity;BME280_pressure;Samples;Min_cycle;Max_cycle;Signal;HPM_P1;HPM_P2
2022/05/20 00:00:46;;;;;;;58.80;36.47;;;15.20;99.90;;;;;;6226541;22;20094;-67
2022/05/20 00:03:12;;;;;;;58.67;37.88;;;15.20;99.90;;;;;;6228858;22;20016;-67
2022/05/20 00:05:38;;;;;;;63.60;38.20;;;15.20;99.90;;;;;;6225988;22;20007;-66
2022/05/20 00:08:04;;;;;;;66.63;38.05;;;15.10;99.90;;;;;;6228360;22;20368;-66
2022/05/20 00:10:30;;;;;;;69.00;40.05;;;15.10;99.90;;;;;;6227572;22;20035;-67
2022/05/20 00:12:55;;;;;;;60.15;38.42;;;15.00;99.90;;;;;;6230449;22;20844;-66
2022/05/20 00:15:23;;;;;;;64.43;38.65;;;15.00;99.90;;;;;;6227333;22;20004;-66
2022/05/20 00:17:48;;;;;;;63.22;40.55;;;15.00;99.90;;;;;;6229187;22;20015;-66
2022/05/20 00:20:15;;;;;;;70.25;41.95;;;15.10;99.90;;;;;;6227820;22;20439;-67
2022/05/20 00:22:41;;;;;;;67.20;41.53;;;15.10;99.90;;;;;;6227473;22;20428;-66
2022/05/20 00:27:51;;;;;;;77.33;43.43;;;15.10;99.90;;;;;;6230414;23;20019;-66
2022/05/20 00:30:17;;;;;;;66.45;42.85;;;15.10;99.90;;;;;;6228122;22;20239;-66
2022/05/20 00:32:42;;;;;;;70.03;43.45;;;15.00;99.90;;;;;;6226696;22;20391;-66
2022/05/20 00:35:09;;;;;;;68.93;43.50;;;15.00;99.90;;;;;;6227430;23;20424;-67
2022/05/20 00:37:34;;;;;;;70.80;43.22;;;15.10;99.90;;;;;;6225279;23;20711;-67
2022/05/20 00:40:00;;;;;;;66.78;42.05;;;15.10;99.90;;;;;;6227503;22;20102;-64
2022/05/20 00:42:26;;;;;;;67.70;41.95;;;15.20;99.90;;;;;;6214762;22;20111;-64
2022/05/20 00:44:51;;;;;;;70.03;43.47;;;15.10;99.90;;;;;;6227360;22;20008;-64
2022/05/20 00:47:17;;;;;;;68.05;43.13;;;15.20;99.90;;;;;;6226036;22;20447;-64
2022/05/20 00:49:48;;;;;;;69.43;42.72;;;16.20;99.90;;;;;;6230260;22;20012;-64
2022/05/20 00:52:15;;;;;;;65.60;42.20;;;15.30;99.90;;;;;;6226604;22;20011;-64
2022/05/20 00:54:43;;;;;;;63.13;43.28;;;15.30;99.90;;;;;;6226172;23;20783;-64
2022/05/20 00:57:15;;;;;;;63.65;43.10;;;15.40;99.90;;;;;;6226686;22;20016;-67
2022/05/20 00:59:43;;;;;;;61.50;42.47;;;15.50;99.90;;;;;;6225906;22;20016;-64
2022/05/20 01:02:10;;;;;;;59.28;40.30;;;15.60;99.90;;;;;;6204703;23;20054;-64
2022/05/20 01:04:36;;;;;;;64.10;41.38;;;15.60;99.90;;;;;;6231042;22;20419;-64
2022/05/20 01:07:01;;;;;;;60.00;40.78;;;15.70;99.90;;;;;;6229302;23;20015;-64
2022/05/20 01:09:27;;;;;;;59.53;40.45;;;15.70;99.90;;;;;;6233607;22;20324;-64
2022/05/20 01:11:52;;;;;;;58.67;40.85;;;15.80;99.90;;;;;;6229605;22;20047;-64
2022/05/20 01:14:19;;;;;;;61.25;38.22;;;15.80;99.90;;;;;;6232826;22;20099;-64
2022/05/20 01:16:45;;;;;;;56.92;38.85;;;15.80;99.90;;;;;;6230140;23;20007;-64
2022/05/20 01:19:12;;;;;;;57.50;38.80;;;15.80;99.90;;;;;;6233605;23;20680;-65
2022/05/20 01:21:37;;;;;;;59.13;38.80;;;15.80;99.90;;;;;;6231164;23;20325;-65
2022/05/20 01:24:03;;;;;;;59.75;37.75;;;15.80;99.90;;;;;;6234852;22;20000;-65
2022/05/20 01:26:29;;;;;;;59.67;37.67;;;15.80;99.90;;;;;;6232944;22;20004;-65
2022/05/20 01:28:54;;;;;;;55.53;37.88;;;15.80;99.90;;;;;;6235455;22;20079;-65
2022/05/20 01:31:20;;;;;;;56.15;36.60;;;15.90;99.90;;;;;;6232594;22;20012;-65
2022/05/20 01:33:50;;;;;;;53.03;36.90;;;15.80;99.90;;;;;;6234914;22;20028;-65
2022/05/20 01:36:17;;;;;;;56.08;38.90;;;15.90;99.90;;;;;;6233792;22;20347;-65
2022/05/20 01:38:43;;;;;;;59.47;39.15;;;15.80;99.90;;;;;;6231898;22;20353;-65
2022/05/20 01:41:11;;;;;;;57.75;38.55;;;15.80;99.90;;;;;;6231236;23;20050;-65
2022/05/20 01:43:57;;;;;;;56.78;39.00;;;15.70;99.90;;;;;;6233456;22;20004;-65
2022/05/20 01:46:28;;;;;;;56.10;38.28;;;15.70;99.90;;;;;;6230835;23;20049;-64
2022/05/20 01:49:16;;;;;;;54.33;39.08;;;15.70;99.90;;;;;;6233189;22;20009;-65
2022/05/20 01:52:00;;;;;;;59.28;42.05;;;15.70;99.90;;;;;;6231099;22;20008;-64
2022/05/20 01:54:37;;;;;;;63.25;41.00;;;15.50;99.90;;;;;;6233769;22;20004;-65
2022/05/20 01:57:07;;;;;;;61.53;40.85;;;15.40;99.90;;;;;;6230679;23;20091;-65
2022/05/20 01:59:38;;;;;;;60.15;40.67;;;15.30;99.90;;;;;;6231326;22;20058;-64
2022/05/20 02:02:13;;;;;;;62.10;42.95;;;15.10;99.90;;;;;;6231287;23;20079;-64
2022/05/20 02:04:49;;;;;;;;;;;15.00;99.90;;;;;;6232066;23;20015;-65
2022/05/20 02:07:21;;;;;;;67.22;43.53;;;14.90;99.90;;;;;;6232328;23;19903;-64
2022/05/20 02:09:51;;;;;;;72.40;45.38;;;14.90;99.90;;;;;;6229527;23;20031;-64
2022/05/20 02:12:18;;;;;;;72.97;46.33;;;14.70;99.90;;;;;;6233756;23;20054;-65
2022/05/20 02:14:50;;;;;;;76.20;49.03;;;14.60;99.90;;;;;;6230334;23;20050;-64
2022/05/20 02:17:28;;;;;;;72.75;46.50;;;14.40;99.90;;;;;;6232738;23;20031;-65
2022/05/20 02:20:05;;;;;;;80.97;48.95;;;14.30;99.90;;;;;;6231471;23;20004;-65
2022/05/20 02:22:33;;;;;;;90.35;53.22;;;14.20;99.90;;;;;;6233770;23;20051;-64
2022/05/20 02:24:59;;;;;;;92.35;53.13;;;14.20;99.90;;;;;;6232838;22;20082;-65
2022/05/20 02:27:27;;;;;;;84.55;53.80;;;14.10;99.90;;;;;;6233967;23;20479;-65
2022/05/20 02:30:02;;;;;;;91.82;53.47;;;14.00;99.90;;;;;;6231481;23;20026;-65
2022/05/20 02:32:48;;;;;;;87.20;52.53;;;13.90;99.90;;;;;;6233677;23;20000;-65
2022/05/20 02:35:14;;;;;;;90.28;52.72;;;13.90;99.90;;;;;;6232403;22;20011;-64
2022/05/20 02:37:39;;;;;;;99.35;55.17;;;13.80;99.90;;;;;;6235598;22;20016;-65
2022/05/20 02:40:06;;;;;;;100.32;56.50;;;13.80;99.90;;;;;;6230806;22;20099;-64
2022/05/20 02:42:31;;;;;;;108.53;59.38;;;13.80;99.90;;;;;;6237017;22;20057;-65
2022/05/20 02:45:00;;;;;;;96.80;57.03;;;13.80;99.90;;;;;;6232920;22;20418;-64
2022/05/20 02:47:31;;;;;;;96.93;54.65;;;13.90;99.90;;;;;;6231392;22;20000;-65
2022/05/20 02:50:04;;;;;;;102.55;61.28;;;13.90;99.90;;;;;;6233145;22;20050;-66
2022/05/20 02:52:30;;;;;;;104.68;58.63;;;14.00;99.90;;;;;;6233335;22;20397;-65
2022/05/20 02:54:55;;;;;;;110.68;61.90;;;14.10;99.90;;;;;;6234977;22;20047;-72
2022/05/20 02:57:21;;;;;;;110.32;59.30;;;14.20;99.90;;;;;;6231948;22;20031;-71
2022/05/20 03:05:15;;;;;;;99.78;56.45;;;14.30;99.90;;;;;;6234999;23;20066;-71
2022/05/20 03:07:40;;;;;;;100.22;56.00;;;14.30;99.90;;;;;;6230976;22;20008;-71
2022/05/20 03:10:06;;;;;;;96.78;54.92;;;14.20;99.90;;;;;;6234570;22;20545;-71
2022/05/20 03:12:33;;;;;;;98.20;56.30;;;14.20;99.90;;;;;;6231819;22;20066;-71
2022/05/20 03:14:58;;;;;;;92.55;54.28;;;14.20;99.90;;;;;;6231190;22;20012;-71
2022/05/20 03:17:24;;;;;;;97.93;54.55;;;14.20;99.90;;;;;;6231848;22;20061;-71
2022/05/20 03:19:49;;;;;;;104.15;56.10;;;14.10;99.90;;;;;;6233730;22;20505;-71
2022/05/20 03:22:15;;;;;;;102.22;56.72;;;14.10;99.90;;;;;;6232545;22;20006;-71
2022/05/20 03:24:42;;;;;;;91.28;53.30;;;14.10;99.90;;;;;;6233564;22;20006;-71
2022/05/20 03:27:07;;;;;;;86.22;52.65;;;14.10;99.90;;;;;;6231711;22;20008;-71
2022/05/20 03:29:33;;;;;;;91.88;52.95;;;14.20;99.90;;;;;;6233810;22;20008;-72
2022/05/20 03:31:58;;;;;;;95.38;55.38;;;14.20;99.90;;;;;;6231532;22;20008;-71
2022/05/20 03:34:24;;;;;;;90.35;54.35;;;14.20;99.90;;;;;;6235149;22;20008;-72
2022/05/20 03:36:50;;;;;;;92.80;54.72;;;14.20;99.90;;;;;;6229061;22;20091;-72
2022/05/20 03:39:18;;;;;;;96.18;55.05;;;14.30;99.90;;;;;;6230232;23;20004;-71
2022/05/20 03:41:43;;;;;;;96.55;54.70;;;14.30;99.90;;;;;;6231994;22;20004;-71
2022/05/20 03:44:10;;;;;;;105.32;57.38;;;14.20;99.90;;;;;;6231777;23;20400;-71
2022/05/20 03:46:47;;;;;;;94.15;53.42;;;14.10;99.90;;;;;;6232659;22;20014;-71
2022/05/20 03:49:13;;;;;;;107.30;58.80;;;14.10;99.90;;;;;;6235559;22;20324;-71
2022/05/20 03:51:39;;;;;;;92.95;54.95;;;14.10;99.90;;;;;;6232513;22;20008;-71
2022/05/20 03:54:04;;;;;;;93.53;55.03;;;14.00;99.90;;;;;;6233044;22;20196;-71
2022/05/20 03:56:30;;;;;;;94.30;55.85;;;13.90;99.90;;;;;;6231119;22;20512;-71
2022/05/20 03:58:55;;;;;;;93.25;55.83;;;14.00;99.90;;;;;;6230198;22;20053;-72
2022/05/20 04:04:05;;;;;;;101.25;55.80;;;14.10;99.90;;;;;;6227845;23;20011;-73
2022/05/20 04:06:31;;;;;;;92.35;53.33;;;14.20;99.90;;;;;;6229895;22;20004;-72
2022/05/20 04:08:56;;;;;;;87.50;53.92;;;14.20;99.90;;;;;;6235116;22;19995;-72
2022/05/20 04:11:22;;;;;;;87.53;51.20;;;14.30;99.90;;;;;;6233013;22;20053;-64
2022/05/20 04:13:47;;;;;;;79.72;50.72;;;14.40;99.90;;;;;;6234745;22;20000;-65
2022/05/20 04:16:14;;;;;;;73.22;48.75;;;14.50;99.90;;;;;;6232761;22;20288;-65
2022/05/20 04:18:41;;;;;;;82.53;50.25;;;14.50;99.90;;;;;;6234648;22;20012;-60
2022/05/20 04:21:13;;;;;;;80.57;50.05;;;14.50;99.90;;;;;;6232219;22;20511;-62
2022/05/20 04:23:38;;;;;;;75.10;47.25;;;14.50;99.90;;;;;;6234597;22;20000;-63
2022/05/20 04:26:04;;;;;;;84.03;48.65;;;14.70;99.90;;;;;;6232621;22;20087;-63
2022/05/20 04:28:29;;;;;;;70.82;45.85;;;14.80;99.90;;;;;;6235111;22;20040;-62
2022/05/20 04:30:57;;;;;;;67.20;45.35;;;14.90;99.90;;;;;;6230305;22;20038;-63
2022/05/20 04:33:23;;;;;;;70.18;44.50;;;15.00;99.90;;;;;;6233069;22;20014;-63
2022/05/20 04:35:49;;;;;;;70.40;44.60;;;15.00;99.90;;;;;;6229056;23;20091;-62
2022/05/20 04:38:14;;;;;;;69.15;46.17;;;15.10;99.90;;;;;;6231840;22;20020;-62
2022/05/20 04:40:40;;;;;;;70.07;45.13;;;15.10;99.90;;;;;;6230536;22;20433;-63
2022/05/20 04:48:33;;;;;;;65.97;43.42;;;15.30;99.90;;;;;;6228544;23;20408;-62
2022/05/20 04:50:59;;;;;;;62.97;43.45;;;15.40;99.90;;;;;;6229909;22;20008;-63
2022/05/20 04:56:08;;;;;;;64.45;43.67;;;15.50;99.90;;;;;;6226212;23;20023;-65
2022/05/20 04:58:34;;;;;;;63.72;42.80;;;15.50;99.90;;;;;;6230352;22;20323;-63
2022/05/20 05:00:59;;;;;;;63.28;43.95;;;15.60;99.90;;;;;;6227296;22;20352;-65
2022/05/20 05:03:25;;;;;;;57.22;41.95;;;15.70;99.90;;;;;;6231904;22;20138;-64
2022/05/20 05:05:50;;;;;;;59.30;41.15;;;15.80;99.90;;;;;;6230095;22;20197;-64
2022/05/20 05:08:16;;;;;;;56.72;40.80;;;15.80;99.90;;;;;;6230581;22;20079;-63
2022/05/20 05:10:42;;;;;;;59.20;39.42;;;15.90;99.90;;;;;;6225504;22;20432;-63
2022/05/20 05:13:09;;;;;;;62.10;41.35;;;16.00;99.90;;;;;;6226454;22;20003;-64
2022/05/20 05:15:35;;;;;;;66.25;40.80;;;16.10;99.90;;;;;;6236101;22;20008;-63
2022/05/20 05:18:30;;;;;;;62.45;40.80;;;16.10;99.90;;;;;;6232935;22;20007;-64
2022/05/20 05:20:56;;;;;;;56.47;39.17;;;16.20;99.90;;;;;;6218626;23;20008;-65
2022/05/20 05:23:22;;;;;;;61.97;41.22;;;16.20;99.90;;;;;;6233412;22;20389;-66
2022/05/20 05:25:47;;;;;;;58.53;39.22;;;16.30;99.90;;;;;;6232180;22;20582;-66
2022/05/20 05:28:13;;;;;;;59.00;37.35;;;16.90;99.90;;;;;;6233970;22;20262;-66
2022/05/20 05:30:42;;;;;;;55.85;38.08;;;16.80;99.90;;;;;;6232760;22;20388;-65
2022/05/20 05:33:08;;;;;;;47.55;35.13;;;16.90;99.90;;;;;;6234923;22;20024;-63
2022/05/20 05:35:33;;;;;;;57.45;37.13;;;17.60;99.90;;;;;;6229787;23;20122;-63
2022/05/20 05:37:59;;;;;;;50.72;35.42;;;17.70;99.90;;;;;;6227614;23;20004;-63
2022/05/20 05:40:28;;;;;;;43.70;34.35;;;17.80;99.90;;;;;;6227275;22;19996;-63
2022/05/20 05:42:55;;;;;;;45.13;32.33;;;18.70;99.90;;;;;;6235196;22;20121;-63
2022/05/20 05:45:21;;;;;;;44.67;31.17;;;19.70;99.90;;;;;;6227119;23;20012;-64
2022/05/20 05:47:57;;;;;;;40.72;29.42;;;20.50;98.70;;;;;;6232720;22;20092;-63
2022/05/20 05:50:23;;;;;;;38.35;28.33;;;21.20;97.40;;;;;;6227053;22;20004;-63
2022/05/20 05:53:18;;;;;;;39.58;27.10;;;21.90;95.80;;;;;;6229151;22;20325;-63
2022/05/20 05:55:45;;;;;;;37.53;28.40;;;22.40;93.50;;;;;;6225854;22;20008;-64
2022/05/20 05:58:20;;;;;;;36.70;25.13;;;22.70;92.80;;;;;;6229681;22;20004;-63
2022/05/20 06:00:45;;;;;;;31.55;26.30;;;22.80;92.50;;;;;;6233869;22;20111;-65
2022/05/20 06:03:11;;;;;;;34.97;26.98;;;23.00;91.30;;;;;;6231398;22;20103;-60
2022/05/20 06:05:37;;;;;;;30.55;24.83;;;23.40;90.70;;;;;;6222955;23;20524;-64
2022/05/20 06:08:02;;;;;;;31.63;23.98;;;24.40;85.90;;;;;;6231479;22;20012;-61
2022/05/20 06:10:28;;;;;;;30.42;23.52;;;24.10;87.20;;;;;;6232507;22;20110;-60
2022/05/20 06:12:55;;;;;;;33.15;23.98;;;23.60;88.60;;;;;;6235171;22;20008;-61
2022/05/20 06:15:22;;;;;;;30.75;22.38;;;24.10;87.90;;;;;;6233833;22;20550;-61
2022/05/20 06:17:48;;;;;;;27.20;19.73;;;25.30;81.80;;;;;;6229052;22;20004;-64
2022/05/20 06:20:14;;;;;;;29.30;20.02;;;24.60;79.30;;;;;;6230297;23;20023;-65
2022/05/20 06:22:41;;;;;;;26.52;19.58;;;24.80;79.40;;;;;;6220928;22;20008;-65
2022/05/20 06:25:07;;;;;;;27.70;19.45;;;25.40;75.40;;;;;;6224275;23;20004;-58
2022/05/20 06:27:32;;;;;;;24.65;19.73;;;26.00;71.80;;;;;;6228336;22;20000;-59
2022/05/20 06:29:58;;;;;;;25.85;19.65;;;26.20;69.40;;;;;;6234334;22;20000;-59
2022/05/20 06:32:23;;;;;;;28.63;19.65;;;26.90;66.40;;;;;;6232257;22;20012;-59
2022/05/20 06:40:18;;;;;;;32.63;21.65;;;26.30;66.70;;;;;;6233375;23;20015;-58
2022/05/20 06:42:44;;;;;;;29.67;22.58;;;26.50;65.30;;;;;;6231443;22;20393;-59
2022/05/20 06:45:13;;;;;;;29.00;21.55;;;24.30;74.80;;;;;;6232400;23;20087;-59
2022/05/20 06:47:39;;;;;;;27.50;23.15;;;23.60;83.90;;;;;;6231533;22;20058;-60
2022/05/20 06:50:05;;;;;;;31.15;23.40;;;23.10;88.10;;;;;;6232262;22;20091;-59
2022/05/20 06:52:30;;;;;;;34.63;22.90;;;22.60;90.90;;;;;;6230905;22;20326;-59
2022/05/20 06:54:56;;;;;;;26.25;22.30;;;22.80;91.80;;;;;;6233486;22;20000;-59
2022/05/20 06:57:22;;;;;;;30.17;21.17;;;24.90;81.40;;;;;;6231048;22;20066;-59
2022/05/20 06:59:48;;;;;;;26.52;21.38;;;25.50;79.60;;;;;;6234250;22;20004;-59
2022/05/20 07:02:13;;;;;;;24.20;20.25;;;26.20;72.90;;;;;;6229513;22;20411;-59
2022/05/20 07:04:39;;;;;;;23.40;20.60;;;26.30;75.70;;;;;;6232015;22;20000;-59
2022/05/20 07:07:05;;;;;;;26.63;20.83;;;26.40;70.50;;;;;;6234350;22;20789;-59
2022/05/20 07:09:30;;;;;;;24.52;20.60;;;25.80;75.50;;;;;;6228502;23;20518;-59
2022/05/20 07:11:56;;;;;;;24.40;19.00;;;25.60;76.20;;;;;;6234589;22;20007;-58
2022/05/20 07:14:22;;;;;;;25.23;21.05;;;26.20;75.70;;;;;;6229693;23;20471;-59
2022/05/20 07:16:48;;;;;;;27.58;20.27;;;27.40;68.60;;;;;;6232967;22;20062;-59
2022/05/20 07:19:13;;;;;;;24.30;20.60;;;29.20;59.80;;;;;;6231796;22;20436;-61
2022/05/20 07:21:39;;;;;;;26.65;19.27;;;28.60;58.90;;;;;;6234473;22;20023;-62
2022/05/20 07:24:05;;;;;;;24.17;19.45;;;27.40;62.40;;;;;;6232056;22;20001;-62
2022/05/20 07:26:31;;;;;;;24.58;19.95;;;27.60;64.30;;;;;;6232378;22;20045;-62
2022/05/20 07:28:57;;;;;;;28.00;22.00;;;29.30;58.50;;;;;;6233914;22;20008;-62
2022/05/20 07:31:24;;;;;;;22.52;20.13;;;30.10;54.30;;;;;;6229102;22;20141;-62
2022/05/20 07:33:52;;;;;;;27.83;20.73;;;29.00;56.50;;;;;;6232465;22;20180;-62
2022/05/20 07:36:18;;;;;;;22.63;19.05;;;27.20;62.80;;;;;;6230643;22;20012;-62
2022/05/20 07:38:44;;;;;;;20.80;17.55;;;27.10;67.90;;;;;;6231915;22;20456;-62
2022/05/20 07:41:10;;;;;;;27.30;19.50;;;28.80;64.20;;;;;;6231393;22;20000;-62
2022/05/20 07:43:35;;;;;;;23.80;19.48;;;30.70;55.60;;;;;;6232346;22;20004;-63
2022/05/20 07:46:01;;;;;;;22.48;18.30;;;29.70;55.40;;;;;;6230709;22;19999;-61
2022/05/20 07:48:27;;;;;;;24.00;18.65;;;29.20;57.50;;;;;;6232884;22;20004;-62
2022/05/20 07:50:55;;;;;;;26.65;19.05;;;30.90;54.20;;;;;;6230876;22;20360;-61
2022/05/20 07:53:21;;;;;;;22.63;18.15;;;30.30;53.60;;;;;;6230945;23;20042;-61
2022/05/20 07:55:57;;;;;;;23.20;20.05;;;29.70;55.00;;;;;;6230610;22;20004;-63
2022/05/20 07:58:29;;;;;;;25.70;19.50;;;28.20;58.60;;;;;;6230460;23;20352;-62
2022/05/20 08:00:58;;;;;;;22.15;18.35;;;28.90;59.40;;;;;;6228893;22;20008;-61
2022/05/20 08:06:09;;;;;;;22.45;18.67;;;31.10;54.40;;;;;;6230217;23;20054;-62
2022/05/20 08:08:34;;;;;;;22.98;19.48;;;32.00;51.10;;;;;;6232184;22;20467;-62
2022/05/20 08:11:00;;;;;;;20.33;17.77;;;30.40;53.00;;;;;;6231605;22;20000;-62
2022/05/20 08:13:26;;;;;;;21.63;17.88;;;30.50;54.40;;;;;;6233445;22;20031;-62
2022/05/20 08:15:51;;;;;;;23.45;19.48;;;30.60;54.30;;;;;;6231510;22;20000;-63
2022/05/20 08:18:17;;;;;;;27.98;19.83;;;30.50;54.30;;;;;;6230752;23;20008;-62
2022/05/20 08:20:43;;;;;;;23.52;19.63;;;30.50;54.40;;;;;;6230527;22;19996;-62
2022/05/20 08:23:08;;;;;;;30.10;20.13;;;30.70;53.90;;;;;;6233050;22;20008;-62
2022/05/20 08:25:36;;;;;;;22.60;18.92;;;29.20;57.20;;;;;;6231034;22;19999;-62
2022/05/20 08:28:02;;;;;;;31.65;25.60;;;29.90;56.50;;;;;;6233814;22;20000;-61
2022/05/20 08:30:28;;;;;;;27.75;24.15;;;28.30;59.40;;;;;;6230363;22;20008;-62
2022/05/20 08:32:53;;;;;;;30.60;24.90;;;27.50;64.60;;;;;;6233380;22;20345;-62
2022/05/20 08:35:20;;;;;;;29.52;24.30;;;27.90;64.00;;;;;;6231036;22;20008;-61
2022/05/20 08:37:46;;;;;;;28.98;22.65;;;27.90;64.60;;;;;;6230545;22;20318;-62
2022/05/20 08:40:16;;;;;;;35.47;28.02;;;29.00;62.30;;;;;;6231104;22;20035;-62
2022/05/20 08:42:43;;;;;;;39.20;31.52;;;28.80;65.40;;;;;;6232634;22;20000;-61
2022/05/20 08:45:08;;;;;;;40.40;33.30;;;27.30;68.00;;;;;;6230240;22;20004;-60
2022/05/20 08:47:45;;;;;;;41.22;31.77;;;25.70;80.50;;;;;;6230528;23;20084;-62
2022/05/20 08:50:14;;;;;;;38.42;31.00;;;25.60;86.50;;;;;;6227944;23;20076;-61
2022/05/20 08:52:40;;;;;;;41.97;34.40;;;26.80;83.00;;;;;;6232200;22;20022;-62
2022/05/20 08:55:06;;;;;;;39.20;30.33;;;26.10;81.10;;;;;;6230139;22;20314;-61
2022/05/20 08:57:33;;;;;;;42.92;31.02;;;26.80;81.70;;;;;;6231950;22;20058;-64
2022/05/20 08:59:59;;;;;;;39.70;30.17;;;26.80;81.20;;;;;;6229529;22;20000;-62
2022/05/20 09:02:25;;;;;;;39.05;30.83;;;26.50;83.50;;;;;;6232366;22;20023;-61
2022/05/20 09:04:50;;;;;;;38.28;30.38;;;26.20;83.50;;;;;;6230788;22;20015;-61
2022/05/20 09:07:17;;;;;;;40.53;31.42;;;26.30;85.90;;;;;;6233116;22;20079;-61
2022/05/20 09:09:44;;;;;;;42.00;32.78;;;26.10;85.20;;;;;;6229704;22;20011;-60
2022/05/20 09:12:10;;;;;;;40.33;32.10;;;25.10;90.30;;;;;;6233266;22;20020;-62
2022/05/20 09:17:21;;;;;;;47.70;33.72;;;24.90;91.00;;;;;;6229179;23;20087;-61
2022/05/20 09:20:02;;;;;;;39.45;30.55;;;25.30;91.70;;;;;;6232610;22;20437;-62
2022/05/20 09:22:30;;;;;;;40.88;31.48;;;25.70;91.00;;;;;;6231209;22;20004;-61
2022/05/20 09:24:55;;;;;;;45.40;31.90;;;25.60;90.80;;;;;;6233309;22;20078;-61
2022/05/20 09:27:29;;;;;;;37.72;29.25;;;25.50;91.10;;;;;;6230321;22;20039;-61
2022/05/20 09:30:00;;;;;;;47.23;32.93;;;25.90;91.30;;;;;;6232972;22;20376;-61
2022/05/20 09:32:33;;;;;;;41.97;33.47;;;25.30;91.50;;;;;;6229269;23;20258;-62
2022/05/20 09:35:19;;;;;;;44.17;32.25;;;25.60;90.90;;;;;;6232786;22;20008;-61
2022/05/20 09:37:46;;;;;;;41.88;31.17;;;25.80;90.70;;;;;;6215868;23;20087;-62
2022/05/20 09:40:33;;;;;;;47.38;30.70;;;25.60;91.20;;;;;;6230974;23;20004;-62
2022/05/20 09:43:01;;;;;;;42.42;31.98;;;26.00;91.20;;;;;;6231164;22;20050;-61
2022/05/20 09:45:27;;;;;;;43.03;32.00;;;26.20;89.80;;;;;;6233745;22;20000;-61
2022/05/20 09:47:54;;;;;;;43.13;34.65;;;25.20;92.40;;;;;;6231838;22;20016;-62
2022/05/20 09:50:38;;;;;;;39.63;30.90;;;24.70;92.70;;;;;;6234040;22;20032;-62
2022/05/20 09:53:24;;;;;;;42.42;31.00;;;24.90;93.10;;;;;;6231095;22;20035;-62
2022/05/20 09:55:49;;;;;;;40.35;29.33;;;25.50;92.70;;;;;;6234259;22;20004;-61
2022/05/20 09:58:28;;;;;;;33.17;26.95;;;27.00;89.60;;;;;;6230000;23;20054;-62
2022/05/20 10:00:55;;;;;;;36.20;29.95;;;26.80;89.50;;;;;;6233741;22;20436;-62
2022/05/20 10:03:29;;;;;;;34.08;29.08;;;27.10;87.30;;;;;;6231695;22;20027;-62
2022/05/20 10:06:13;;;;;;;34.60;27.05;;;27.10;87.00;;;;;;6230422;23;20305;-62
2022/05/20 10:08:43;;;;;;;33.90;28.50;;;28.10;84.50;;;;;;6233654;22;20014;-61
2022/05/20 10:11:28;;;;;;;34.53;29.13;;;28.40;80.80;;;;;;6230207;23;20080;-62
2022/05/20 10:14:03;;;;;;;31.67;28.30;;;29.00;77.90;;;;;;6233187;23;20421;-62
2022/05/20 10:16:52;;;;;;;31.83;27.25;;;29.00;77.20;;;;;;6230190;23;20770;-62
2022/05/20 10:19:41;;;;;;;31.27;26.27;;;30.00;71.30;;;;;;6232278;22;20008;-63
2022/05/20 10:22:22;;;;;;;27.23;23.35;;;30.40;70.30;;;;;;6233214;23;20224;-62
2022/05/20 10:24:57;;;;;;;26.17;23.38;;;30.40;70.20;;;;;;6230195;23;20000;-62
2022/05/20 10:27:43;;;;;;;24.33;20.40;;;30.20;69.90;;;;;;6232954;22;20051;-63
2022/05/20 10:33:05;;;;;;;24.50;21.92;;;30.60;68.00;;;;;;6233159;23;20054;-63
2022/05/20 10:35:45;;;;;;;26.98;20.38;;;30.20;67.60;;;;;;6230438;23;20439;-62
2022/05/20 10:38:36;;;;;;;22.30;19.90;;;30.40;70.00;;;;;;6233821;22;20436;-62
2022/05/20 10:41:08;;;;;;;26.55;20.60;;;31.00;66.50;;;;;;6228503;23;20004;-64
2022/05/20 10:50:23;;;;;;;23.65;21.15;;;29.10;73.70;;;;;;6188048;22;20375;-63
2022/05/20 10:53:28;;;;;;;33.25;22.92;;;30.40;70.40;;;;;;6233533;22;20189;-63
2022/05/20 10:55:56;;;;;;;;;;;30.50;69.80;;;;;;6229761;23;20121;-63
2022/05/20 10:58:28;;;;;;;27.17;23.55;;;30.00;71.70;;;;;;6232310;23;20347;-62
2022/05/20 11:00:55;;;;;;;29.85;25.67;;;29.60;73.50;;;;;;6231128;22;20075;-63
2022/05/20 11:03:55;;;;;;;31.05;24.40;;;28.60;74.20;;;;;;6233601;22;20020;-63
2022/05/20 11:06:54;;;;;;;28.67;23.05;;;28.10;80.50;;;;;;6231074;22;20751;-62
2022/05/20 11:09:32;;;;;;;25.25;21.83;;;29.30;76.70;;;;;;6229788;23;20016;-62
2022/05/20 11:11:59;;;;;;;24.70;22.05;;;29.40;75.70;;;;;;6232724;22;20579;-63
2022/05/20 11:14:43;;;;;;;29.42;22.73;;;29.20;77.50;;;;;;6229986;23;20004;-62
2022/05/20 11:17:33;;;;;;;30.45;21.23;;;28.90;78.40;;;;;;6233575;22;20443;-62
2022/05/20 11:20:08;;;;;;;26.20;21.83;;;29.50;76.70;;;;;;6231861;22;20464;-62
2022/05/20 11:22:55;;;;;;;26.15;20.42;;;28.80;79.40;;;;;;6230913;23;20038;-62
2022/05/20 11:25:25;;;;;;;23.10;19.70;;;29.10;77.70;;;;;;6229466;23;20011;-62
2022/05/20 11:28:13;;;;;;;24.23;19.38;;;29.40;79.40;;;;;;6233648;22;20074;-62
2022/05/20 11:31:03;;;;;;;21.80;17.85;;;29.80;77.50;;;;;;6230134;23;20011;-62
2022/05/20 11:33:44;;;;;;;21.40;16.00;;;28.80;79.70;;;;;;6231950;23;20085;-63
2022/05/20 11:36:49;;;;;;;25.42;18.88;;;28.70;80.30;;;;;;6232240;22;20083;-62
2022/05/20 11:39:36;;;;;;;24.10;18.15;;;28.00;80.10;;;;;;6231235;22;20340;-61
2022/05/20 11:42:24;;;;;;;18.77;16.10;;;28.40;81.40;;;;;;6230564;22;20479;-63
2022/05/20 11:45:17;;;;;;;21.05;15.65;;;29.30;80.70;;;;;;6231006;22;20035;-62
2022/05/20 11:47:58;;;;;;;21.80;17.73;;;28.90;79.20;;;;;;6233329;22;20168;-62
2022/05/20 11:50:43;;;;;;;24.90;16.58;;;28.80;80.20;;;;;;6229787;23;20054;-63
2022/05/20 11:53:13;;;;;;;21.58;15.38;;;28.70;79.10;;;;;;6232309;22;20102;-63
2022/05/20 11:55:51;;;;;;;19.27;15.95;;;27.70;83.70;;;;;;6228663;23;20082;-63
2022/05/20 11:58:36;;;;;;;19.67;14.95;;;27.30;86.80;;;;;;6231200;23;20000;-63
2022/05/20 12:01:02;;;;;;;18.98;16.02;;;26.90;89.20;;;;;;6229868;22;20408;-62
2022/05/20 12:03:29;;;;;;;16.92;14.45;;;26.50;90.30;;;;;;6231294;23;20012;-62
2022/05/20 12:05:55;;;;;;;15.27;12.73;;;26.60;90.90;;;;;;6229648;23;20004;-62
2022/05/20 12:08:44;;;;;;;14.65;12.05;;;26.20;91.60;;;;;;6231404;23;20075;-62
2022/05/20 12:11:33;;;;;;;13.43;11.90;;;25.90;92.60;;;;;;6231406;22;20208;-62
2022/05/20 12:14:09;;;;;;;15.48;11.93;;;25.90;92.70;;;;;;6233844;22;20012;-62
2022/05/20 12:17:02;;;;;;;16.17;12.50;;;25.60;93.30;;;;;;6231999;22;20015;-63
2022/05/20 12:25:29;;;;;;;11.43;9.13;;;25.30;94.60;;;;;;6231373;23;20062;-61
2022/05/20 12:28:08;;;;;;;13.02;10.10;;;25.00;95.00;;;;;;6188621;22;20083;-63
2022/05/20 12:30:42;;;;;;;14.23;10.70;;;24.60;96.70;;;;;;6230087;22;20690;-61
2022/05/20 12:33:54;;;;;;;14.13;11.07;;;24.30;98.00;;;;;;6233729;22;20114;-61
2022/05/20 12:36:28;;;;;;;15.07;12.15;;;24.00;99.70;;;;;;6209512;22;20498;-62
2022/05/20 12:39:09;;;;;;;15.70;12.63;;;23.80;99.90;;;;;;6233630;22;20028;-61
2022/05/20 12:41:43;;;;;;;16.23;12.05;;;23.50;99.90;;;;;;6227997;22;20618;-62
2022/05/20 12:44:17;;;;;;;13.60;12.27;;;23.30;99.90;;;;;;6232930;22;20010;-62
2022/05/20 12:47:05;;;;;;;17.10;13.95;;;23.10;99.90;;;;;;6232900;22;20004;-61
2022/05/20 12:49:38;;;;;;;21.27;15.65;;;22.90;99.90;;;;;;6230413;22;20016;-62
2022/05/20 12:52:11;;;;;;;18.85;16.85;;;22.60;99.90;;;;;;6233041;22;20031;-61
2022/05/20 12:54:57;;;;;;;27.02;19.00;;;22.40;99.90;;;;;;6230854;22;20196;-61
2022/05/20 12:57:26;;;;;;;28.42;20.50;;;22.20;99.90;;;;;;6233011;22;20012;-61
2022/05/20 13:00:04;;;;;;;26.17;21.48;;;22.00;99.90;;;;;;6227789;22;20011;-61
2022/05/20 13:02:36;;;;;;;23.10;15.88;;;21.80;99.90;;;;;;6232305;22;20020;-60
2022/05/20 13:05:39;;;;;;;26.65;19.25;;;21.70;99.90;;;;;;6229108;23;20000;-60
2022/05/20 13:08:09;;;;;;;24.02;18.15;;;21.30;99.90;;;;;;6140227;23;20064;-61
2022/05/20 13:10:37;;;;;;;20.83;12.80;;;21.00;99.90;;;;;;6215655;23;20474;-61
2022/05/20 13:13:17;;;;;;;18.25;14.50;;;20.70;99.90;;;;;;6232581;22;20173;-61
2022/05/20 13:15:55;;;;;;;18.65;13.73;;;20.40;99.90;;;;;;6235233;22;20004;-61
2022/05/20 13:18:24;;;;;;;15.25;6.35;;;20.10;99.90;;;;;;6231033;23;20738;-61
2022/05/20 13:20:51;;;;;;;9.27;5.15;;;19.80;99.90;;;;;;6234298;22;20004;-62
2022/05/20 13:23:28;;;;;;;8.60;5.35;;;19.60;99.90;;;;;;6232471;22;19996;-61
2022/05/20 13:25:53;;;;;;;6.30;3.63;;;19.80;99.90;;;;;;6234288;22;20004;-62
2022/05/20 13:28:27;;;;;;;5.20;3.40;;;20.10;99.90;;;;;;6177415;22;20392;-62
2022/05/20 13:31:06;;;;;;;5.82;3.17;;;20.50;99.90;;;;;;6234721;22;20004;-62